This is the latest recevied weather packets stored in our database for station/object W0RMT-13. If no packets are shown the sender has not sent any weather packets the latest 10 day(s).
| Time | Temp. | Humidity | Pressure | Rain* | Wind** | Luminosity | Snow |
|---|---|---|---|---|---|---|---|
| 1777903552 | 13.89° C | 37% | 1009.5 hPa | 0 mm | - | 47 W/m² | - |
| 1777902853 | 13.33° C | 39% | 1009.5 hPa | 0 mm | - | 44 W/m² | - |
| 1777902151 | 12.22° C | 36% | 1009.5 hPa | 0 mm | - | 46 W/m² | - |
| 1777901449 | 11.11° C | 36% | 1009.5 hPa | 0 mm | - | 47 W/m² | - |
| 1777900828 | 10° C | 38% | 1009 hPa | 0 mm | - | 47 W/m² | - |
| 1777900196 | 8.89° C | 39% | 1009 hPa | 0 mm | - | 39 W/m² | - |
| 1777899536 | 8.33° C | 47% | 1009 hPa | 0 mm | - | 23 W/m² | - |
| 1777898850 | 8.33° C | 52% | 1009 hPa | 0 mm | - | 18 W/m² | - |
| 1777898236 | 7.78° C | 53% | 1009 hPa | 0 mm | - | 7 W/m² | - |
| 1777897528 | 7.78° C | 52% | 1009 hPa | 0 mm | - | 3 W/m² | - |
| 1777896913 | 7.78° C | 53% | 1009 hPa | 0 mm | - | 0 W/m² | - |
| 1777896281 | 7.22° C | 53% | 1009 hPa | 0 mm | - | 0 W/m² | - |
| 1777895615 | 7.22° C | 53% | 1009 hPa | 0 mm | - | 0 W/m² | - |
| 1777894984 | 7.22° C | 53% | 1008.7 hPa | 0 mm | - | 0 W/m² | - |
| 1777894321 | 6.67° C | 54% | 1009 hPa | 0 mm | - | 0 W/m² | - |
| 1777893673 | 6.67° C | 53% | 1009.5 hPa | 0 mm | - | 0 W/m² | - |
| 1777893042 | 6.67° C | 53% | 1009 hPa | 0 mm | - | 0 W/m² | - |
| 1777892375 | 6.67° C | 52% | 1009.5 hPa | 0 mm | - | 0 W/m² | - |
| 1777891711 | 6.67° C | 52% | 1009.5 hPa | 0 mm | - | 0 W/m² | - |
| 1777891106 | 6.67° C | 51% | 1009.5 hPa | 0 mm | - | 0 W/m² | - |
| 1777890434 | 6.67° C | 52% | 1009.5 hPa | 0 mm | - | 0 W/m² | - |
| 1777889805 | 6.67° C | 50% | 1009.5 hPa | 0 mm | - | 0 W/m² | - |
| 1777889135 | 6.67° C | 53% | 1009.8 hPa | 0 mm | - | 0 W/m² | - |
| 1777888521 | 6.67° C | 51% | 1009.8 hPa | 0 mm | - | 0 W/m² | - |
| 1777887841 | 6.67° C | 53% | 1009.8 hPa | 0 mm | - | 0 W/m² | - |
* Rain latest hour (hover to see other rain measurements)
** Current wind speed in m/s (hover to see current wind gust speed)